Time;durP1;ratioP1;P1;durP2;ratioP2;P2;SDS_P1;SDS_P2;PMS_P1;PMS_P2;Temp;Humidity;BMP_temperature;BMP_pressure;BME280_temperature;BME280_humidity;BME280_pressure;Samples;Min_cycle;Max_cycle;Signal;HPM_P1;HPM_P2
2021/11/27 00:00:30;;;;;;;;;0.50;0.50;;;;;21.25;40.14;98795.63;4971308;28;45474;-67
2021/11/27 00:02:58;;;;;;;;;2.00;1.00;;;;;21.26;39.78;98791.97;4970307;28;45549;-66
2021/11/27 00:05:27;;;;;;;;;0.00;0.00;;;;;21.26;40.33;98789.34;4969471;28;45597;-67
2021/11/27 00:07:53;;;;;;;;;0.00;0.00;;;;;21.16;39.97;98771.34;4970717;28;45485;-66
2021/11/27 00:10:24;;;;;;;;;0.00;0.00;;;;;21.25;39.98;98775.28;4970426;28;45734;-67
2021/11/27 00:12:50;;;;;;;;;0.00;0.00;;;;;21.26;40.00;98779.53;4971790;28;45395;-66
2021/11/27 00:15:17;;;;;;;;;0.00;0.00;;;;;21.23;40.00;98769.44;4973295;28;45490;-67
2021/11/27 00:17:43;;;;;;;;;1.00;0.50;;;;;21.25;40.07;98767.38;4967640;28;45476;-66
2021/11/27 00:20:12;;;;;;;;;0.00;0.00;;;;;21.27;40.24;98780.34;4969820;28;45530;-66
2021/11/27 00:22:39;;;;;;;;;0.00;0.00;;;;;21.26;40.00;98770.81;4967165;28;45904;-66
2021/11/27 00:25:06;;;;;;;;;0.00;0.00;;;;;21.26;39.92;98771.59;4971320;28;46221;-67
2021/11/27 00:27:32;;;;;;;;;2.00;0.00;;;;;21.22;40.14;98769.63;4971947;28;47678;-67
2021/11/27 00:29:59;;;;;;;;;2.75;1.00;;;;;21.23;38.06;98768.63;4968716;28;45634;-67
2021/11/27 00:32:24;;;;;;;;;2.00;0.00;;;;;21.16;38.40;98771.34;4967460;28;45386;-69
2021/11/27 00:34:50;;;;;;;;;0.50;0.00;;;;;21.14;38.88;98765.47;4968481;28;45548;-68
2021/11/27 00:37:17;;;;;;;;;1.00;0.00;;;;;21.05;39.03;98746.50;4953253;28;45599;-68
2021/11/27 00:39:42;;;;;;;;;1.75;1.00;;;;;21.13;38.76;98759.38;4955415;28;45301;-68
2021/11/27 00:42:07;;;;;;;;;0.25;0.25;;;;;21.05;38.86;98746.50;4955781;28;45420;-68
2021/11/27 00:44:33;;;;;;;;;1.50;0.00;;;;;21.13;38.77;98762.00;4955781;28;45346;-68
2021/11/27 00:46:58;;;;;;;;;0.50;0.50;;;;;21.12;38.82;98754.31;4955708;28;45294;-68
2021/11/27 00:49:24;;;;;;;;;0.00;0.00;;;;;21.11;38.78;98763.28;4954589;28;45233;-68
2021/11/27 00:51:50;;;;;;;;;1.00;1.00;;;;;21.11;38.91;98763.28;4954531;28;45342;-68
2021/11/27 00:54:17;;;;;;;;;0.50;0.50;;;;;21.12;38.61;98755.13;4955365;28;46146;-68
2021/11/27 00:56:43;;;;;;;;;2.50;0.75;;;;;21.13;38.70;98758.59;4955324;28;45788;-67
2021/11/27 00:59:08;;;;;;;;;1.00;1.00;;;;;21.13;38.54;98748.78;4954737;28;45489;-68
2021/11/27 01:01:34;;;;;;;;;0.25;0.25;;;;;21.10;38.82;98740.53;4968696;28;45561;-68
2021/11/27 01:04:00;;;;;;;;;0.67;0.00;;;;;21.13;38.57;98746.16;4965446;28;46091;-68
2021/11/27 01:06:26;;;;;;;;;0.25;0.25;;;;;21.12;38.68;98741.91;4966480;28;45778;-68
2021/11/27 01:08:56;;;;;;;;;1.00;0.50;;;;;21.15;38.50;98743.28;4962560;28;45537;-68
2021/11/27 01:11:34;;;;;;;;;0.00;0.00;;;;;21.15;38.73;98732.72;4956044;28;45829;-68
2021/11/27 01:14:14;;;;;;;;;1.75;1.00;;;;;21.15;38.41;98735.38;4952882;28;47699;-68
2021/11/27 01:16:43;;;;;;;;;1.00;1.00;;;;;21.15;38.49;98727.44;4954662;28;45558;-68
2021/11/27 01:19:10;;;;;;;;;1.50;1.50;;;;;21.15;38.29;98722.97;4968985;28;45553;-68
2021/11/27 01:21:39;;;;;;;;;1.00;0.00;;;;;21.15;38.55;98717.66;4967160;28;45545;-68
2021/11/27 01:24:08;;;;;;;;;2.25;0.00;;;;;21.14;38.12;98713.41;4965843;28;46089;-68
2021/11/27 01:26:34;;;;;;;;;1.00;1.00;;;;;21.13;38.67;98719.72;4965868;28;45596;-66
2021/11/27 01:29:00;;;;;;;;;0.00;0.00;;;;;21.14;38.30;98717.88;4969006;28;45423;-68
2021/11/27 01:31:26;;;;;;;;;1.00;1.00;;;;;21.09;38.53;98702.69;4972773;28;45335;-68
2021/11/27 01:33:51;;;;;;;;;2.00;0.00;;;;;21.12;38.52;98706.72;4973033;28;46570;-68
2021/11/27 01:36:16;;;;;;;;;2.00;0.50;;;;;21.11;38.17;98703.28;4968960;28;45401;-68
2021/11/27 01:38:43;;;;;;;;;1.00;1.00;;;;;20.99;38.41;98683.91;4967480;28;45347;-66
2021/11/27 01:41:09;;;;;;;;;1.00;0.50;;;;;21.03;38.17;98691.19;4967724;28;45524;-68
2021/11/27 01:43:35;;;;;;;;;0.00;0.00;;;;;21.04;38.48;98692.81;4972985;28;46087;-68
2021/11/27 01:46:02;;;;;;;;;0.75;0.75;;;;;21.09;38.36;98702.69;4957832;28;45349;-68
2021/11/27 01:48:29;;;;;;;;;2.50;0.00;;;;;21.07;38.36;98694.19;4962553;28;45422;-68
2021/11/27 01:51:01;;;;;;;;;0.50;0.00;;;;;21.08;38.38;98689.72;4964488;28;45356;-68
2021/11/27 01:53:28;;;;;;;;;1.00;1.00;;;;;21.06;38.24;98687.28;4968627;28;46139;-69
2021/11/27 01:56:00;;;;;;;;;0.00;0.00;;;;;21.06;37.91;98671.41;4971658;28;45647;-68
2021/11/27 01:58:26;;;;;;;;;1.50;1.00;;;;;21.06;38.34;98685.44;4972553;28;45225;-68
2021/11/27 02:00:56;;;;;;;;;0.00;0.00;;;;;21.06;38.30;98696.03;4970818;28;45630;-68
2021/11/27 02:03:22;;;;;;;;;1.00;1.00;;;;;21.02;38.09;98662.34;4968484;28;46132;-66
2021/11/27 02:05:47;;;;;;;;;1.00;1.00;;;;;21.05;38.31;98662.66;4967375;28;45388;-67
2021/11/27 02:08:13;;;;;;;;;0.00;0.00;;;;;21.02;37.97;98660.50;4968872;28;45467;-68
2021/11/27 02:10:38;;;;;;;;;1.33;0.00;;;;;21.05;38.27;98651.31;4972167;28;45370;-68
2021/11/27 02:13:05;;;;;;;;;1.00;1.00;;;;;21.03;37.98;98643.59;4970692;28;46245;-68
2021/11/27 02:15:31;;;;;;;;;1.00;0.50;;;;;21.04;38.27;98641.75;4969235;28;45337;-68
2021/11/27 02:17:56;;;;;;;;;1.50;0.00;;;;;21.03;38.23;98624.28;4967224;28;45839;-69
2021/11/27 02:20:22;;;;;;;;;0.00;0.00;;;;;21.02;38.17;98620.84;4966937;28;45512;-68
2021/11/27 02:22:47;;;;;;;;;0.67;0.67;;;;;21.02;38.20;98615.56;4970526;28;46021;-69
2021/11/27 02:25:18;;;;;;;;;0.00;0.00;;;;;21.01;38.26;98602.53;4971275;28;45612;-68
2021/11/27 02:27:47;;;;;;;;;1.00;0.25;;;;;21.00;38.08;98604.34;4972876;28;45284;-68
2021/11/27 02:30:16;;;;;;;;;1.00;1.00;;;;;21.01;37.91;98602.53;4969479;28;45438;-67
2021/11/27 02:32:42;;;;;;;;;0.00;0.00;;;;;21.01;37.87;98599.88;4972519;28;46391;-65
2021/11/27 02:35:08;;;;;;;;;1.00;0.25;;;;;21.01;38.05;98590.13;4971394;28;45590;-68
2021/11/27 02:37:34;;;;;;;;;0.00;0.00;;;;;21.02;38.10;98583.03;4972611;28;45367;-68
2021/11/27 02:39:59;;;;;;;;;1.00;1.00;;;;;21.02;38.05;98575.09;4973309;28;45396;-68
2021/11/27 02:42:25;;;;;;;;;0.00;0.00;;;;;20.91;37.80;98555.50;4972097;28;45480;-68
2021/11/27 02:44:51;;;;;;;;;1.00;1.00;;;;;21.02;37.94;98567.97;4970871;28;45572;-68
2021/11/27 02:47:17;;;;;;;;;1.00;1.00;;;;;20.97;38.05;98551.97;4968247;28;45583;-68
2021/11/27 02:49:43;;;;;;;;;0.75;0.00;;;;;21.03;37.70;98556.34;4970812;28;45405;-68
2021/11/27 02:52:08;;;;;;;;;0.00;0.00;;;;;20.93;37.95;98527.00;4970777;28;46169;-68
2021/11/27 02:54:34;;;;;;;;;0.25;0.25;;;;;21.04;37.68;98538.66;4969188;28;45418;-68
2021/11/27 02:57:00;;;;;;;;;0.67;0.67;;;;;21.04;37.78;98542.09;4966486;28;45293;-68
2021/11/27 02:59:28;;;;;;;;;0.75;0.75;;;;;21.05;37.95;98527.06;4966337;28;45303;-68
2021/11/27 03:01:56;;;;;;;;;1.00;1.00;;;;;21.05;37.77;98524.41;4957820;28;47207;-68
2021/11/27 03:04:23;;;;;;;;;1.00;1.00;;;;;21.04;37.70;98514.84;4970177;28;45501;-68
2021/11/27 03:06:49;;;;;;;;;0.00;0.00;;;;;21.03;37.59;98508.75;4968945;28;45881;-68
2021/11/27 03:09:16;;;;;;;;;2.50;1.00;;;;;21.02;37.69;98504.53;4967808;28;45419;-68
2021/11/27 03:11:42;;;;;;;;;1.00;1.00;;;;;21.03;37.55;98500.00;4967587;28;47365;-68
2021/11/27 03:14:08;;;;;;;;;3.00;1.00;;;;;21.02;37.70;98501.06;4967689;28;45520;-68
2021/11/27 03:16:38;;;;;;;;;0.00;0.00;;;;;21.01;37.51;98492.31;4972203;28;45412;-68
2021/11/27 03:19:03;;;;;;;;;0.00;0.00;;;;;21.03;37.70;98474.38;4970402;28;45397;-68
2021/11/27 03:21:29;;;;;;;;;1.50;1.00;;;;;21.01;37.62;98473.81;4968049;28;46299;-68
2021/11/27 03:23:54;;;;;;;;;0.00;0.00;;;;;21.01;37.87;98472.97;4967806;28;45581;-66
2021/11/27 03:26:19;;;;;;;;;0.00;0.00;;;;;21.00;36.90;98477.47;4967581;28;45364;-68
2021/11/27 03:28:46;;;;;;;;;0.25;0.25;;;;;20.99;37.68;98481.16;4970370;28;45398;-68
2021/11/27 03:31:13;;;;;;;;;1.00;1.00;;;;;20.89;37.47;98470.34;4970354;28;46906;-68
2021/11/27 03:33:39;;;;;;;;;0.50;0.25;;;;;20.97;37.77;98485.88;4969096;28;45460;-68
2021/11/27 03:36:05;;;;;;;;;0.00;0.00;;;;;20.99;37.60;98490.91;4966239;28;45431;-68
2021/11/27 03:38:32;;;;;;;;;0.00;0.00;;;;;20.98;37.54;98500.69;4966260;28;45258;-68
2021/11/27 03:40:58;;;;;;;;;2.00;1.00;;;;;20.97;37.79;98501.72;4967939;28;46018;-68
2021/11/27 03:43:24;;;;;;;;;1.00;1.00;;;;;20.96;37.78;98494.81;4971367;28;45532;-67
2021/11/27 03:45:50;;;;;;;;;1.00;1.00;;;;;20.96;37.34;98498.28;4969798;28;45434;-68
2021/11/27 03:48:32;;;;;;;;;1.00;1.00;;;;;20.96;37.83;98486.91;4971840;28;45412;-68
2021/11/27 03:51:00;;;;;;;;;1.00;0.00;;;;;20.96;37.53;98481.59;4970817;28;46043;-68
2021/11/27 03:53:29;;;;;;;;;2.00;0.25;;;;;20.96;37.47;98471.03;4963756;28;45405;-68
2021/11/27 03:55:56;;;;;;;;;0.00;0.00;;;;;20.96;37.50;98457.81;4970193;28;45574;-68
2021/11/27 03:58:22;;;;;;;;;0.00;0.00;;;;;20.95;37.75;98462.28;4955728;28;45565;-68
2021/11/27 04:00:49;;;;;;;;;0.00;0.00;;;;;20.96;37.57;98448.06;4957540;28;46480;-68
2021/11/27 04:03:17;;;;;;;;;1.50;1.00;;;;;20.94;37.59;98431.63;4964198;28;45348;-68
2021/11/27 04:05:47;;;;;;;;;0.00;0.00;;;;;20.94;37.42;98423.69;4970355;28;45378;-68
2021/11/27 04:08:13;;;;;;;;;1.75;0.00;;;;;20.94;37.45;98420.25;4966982;28;45407;-68
2021/11/27 04:10:39;;;;;;;;;1.00;1.00;;;;;20.87;37.52;98401.84;4969996;28;45467;-68
2021/11/27 04:13:05;;;;;;;;;0.00;0.00;;;;;20.87;37.28;98387.84;4969890;28;45394;-68
2021/11/27 04:15:30;;;;;;;;;0.25;0.25;;;;;20.84;37.66;98394.41;4966353;28;45450;-68
2021/11/27 04:17:55;;;;;;;;;0.00;0.00;;;;;20.93;37.52;98408.88;4965694;28;45835;-68
2021/11/27 04:20:21;;;;;;;;;0.00;0.00;;;;;20.93;37.31;98395.66;4967128;28;45477;-68
2021/11/27 04:22:47;;;;;;;;;1.00;1.00;;;;;20.93;37.25;98403.56;4969080;28;45413;-68
2021/11/27 04:25:14;;;;;;;;;1.50;0.00;;;;;20.93;37.75;98403.56;4969618;28;45549;-68
2021/11/27 04:27:39;;;;;;;;;1.00;1.00;;;;;20.87;37.75;98385.22;4968520;28;45390;-68
2021/11/27 04:30:08;;;;;;;;;1.33;0.00;;;;;20.95;37.61;98390.94;4966684;28;46048;-68
2021/11/27 04:32:33;;;;;;;;;0.00;0.00;;;;;20.95;37.31;98380.34;4965800;28;45680;-68
2021/11/27 04:34:59;;;;;;;;;0.25;0.25;;;;;20.97;37.53;98380.13;4967556;28;45341;-68
2021/11/27 04:37:25;;;;;;;;;0.00;0.00;;;;;20.96;37.42;98376.69;4970887;28;45553;-68
2021/11/27 04:39:50;;;;;;;;;0.00;0.00;;;;;20.98;37.12;98380.91;4972536;28;46110;-68
2021/11/27 04:42:16;;;;;;;;;2.00;1.00;;;;;20.96;37.14;98374.03;4972236;28;45331;-68
2021/11/27 04:44:41;;;;;;;;;0.75;0.75;;;;;20.97;37.39;98385.44;4970930;28;45414;-68
2021/11/27 04:47:07;;;;;;;;;1.75;1.00;;;;;20.98;37.15;98389.66;4970933;28;45350;-68
2021/11/27 04:49:32;;;;;;;;;0.50;0.50;;;;;20.98;37.40;98373.78;4968717;28;46888;-68
2021/11/27 04:51:58;;;;;;;;;2.00;2.00;;;;;20.88;37.07;98361.19;4965503;28;45509;-68
2021/11/27 04:54:23;;;;;;;;;0.00;0.00;;;;;20.97;37.31;98380.13;4964494;28;45374;-68
2021/11/27 04:56:48;;;;;;;;;0.33;0.33;;;;;20.96;37.08;98381.16;4965014;28;45311;-68
2021/11/27 04:59:14;;;;;;;;;0.00;0.00;;;;;20.95;37.27;98380.34;4966385;28;45458;-68
2021/11/27 05:01:39;;;;;;;;;0.00;0.00;;;;;20.94;37.38;98375.31;4969974;28;45452;-68
2021/11/27 05:04:04;;;;;;;;;2.00;0.00;;;;;20.94;37.46;98377.94;4971658;28;45233;-68
2021/11/27 05:06:31;;;;;;;;;1.00;0.00;;;;;20.92;37.10;98374.75;4970196;28;45202;-68
2021/11/27 05:08:56;;;;;;;;;0.00;0.00;;;;;20.95;37.38;98368.97;4968972;28;46217;-68
2021/11/27 05:11:22;;;;;;;;;1.00;1.00;;;;;20.93;37.06;98363.13;4969205;28;45247;-68
2021/11/27 05:13:47;;;;;;;;;0.00;0.00;;;;;20.92;37.32;98361.53;4971781;28;45516;-68
2021/11/27 05:16:13;;;;;;;;;1.00;1.00;;;;;20.94;37.28;98370.84;4972212;28;45350;-68
2021/11/27 05:18:38;;;;;;;;;0.00;0.00;;;;;20.93;37.23;98340.13;4970595;28;47049;-68
2021/11/27 05:21:04;;;;;;;;;0.00;0.00;;;;;20.93;37.40;98331.41;4970559;28;45482;-68
2021/11/27 05:23:29;;;;;;;;;0.00;0.00;;;;;20.93;37.45;98323.47;4969111;28;45519;-68
2021/11/27 05:25:55;;;;;;;;;1.00;1.00;;;;;20.92;37.33;98333.22;4970776;28;45492;-68
2021/11/27 05:28:20;;;;;;;;;0.00;0.00;;;;;20.92;37.07;98337.75;4970261;28;45324;-68
2021/11/27 05:30:47;;;;;;;;;1.00;1.00;;;;;20.91;36.93;98334.28;4969519;28;45497;-68
2021/11/27 05:33:13;;;;;;;;;0.00;0.00;;;;;20.92;37.33;98332.47;4961970;28;45558;-68
2021/11/27 05:35:40;;;;;;;;;0.33;0.00;;;;;20.90;37.19;98332.66;4960838;28;45574;-68
2021/11/27 05:38:06;;;;;;;;;0.00;0.00;;;;;20.85;37.26;98320.16;4968805;28;46267;-68
2021/11/27 05:40:32;;;;;;;;;1.00;1.00;;;;;20.79;37.13;98323.72;4973430;28;45542;-68
2021/11/27 05:42:58;;;;;;;;;0.00;0.00;;;;;20.91;37.15;98339.56;4971333;28;45225;-68
2021/11/27 05:45:28;;;;;;;;;0.00;0.00;;;;;20.91;37.27;98339.56;4968930;28;48492;-68
2021/11/27 05:47:59;;;;;;;;;0.00;0.00;;;;;20.91;37.39;98342.22;4968812;28;47253;-68
2021/11/27 05:50:25;;;;;;;;;0.00;0.00;;;;;20.90;37.04;98330.03;4968393;28;45398;-68
2021/11/27 05:52:53;;;;;;;;;0.00;0.00;;;;;20.87;36.97;98341.06;4970923;28;45571;-68
2021/11/27 05:55:19;;;;;;;;;1.00;1.00;;;;;20.90;37.12;98345.06;4972010;28;45876;-68
2021/11/27 05:57:44;;;;;;;;;0.00;0.00;;;;;20.88;37.04;98347.97;4970580;28;45398;-68
2021/11/27 06:00:11;;;;;;;;;0.75;0.75;;;;;20.89;37.20;98341.66;4963955;28;45510;-68
2021/11/27 06:02:36;;;;;;;;;1.00;0.00;;;;;20.82;37.05;98339.13;4961984;28;45589;-68
2021/11/27 06:05:02;;;;;;;;;1.00;0.00;;;;;20.89;37.04;98333.72;4969025;28;45806;-69
2021/11/27 06:07:27;;;;;;;;;0.00;0.00;;;;;20.89;37.24;98340.84;4972696;28;46145;-68
2021/11/27 06:09:52;;;;;;;;;0.50;0.00;;;;;20.80;37.25;98328.00;4970425;28;45273;-68
2021/11/27 06:12:18;;;;;;;;;0.00;0.00;;;;;20.89;37.34;98341.66;4967323;28;45363;-68
2021/11/27 06:14:43;;;;;;;;;0.00;0.00;;;;;20.89;37.08;98331.09;4966897;28;45343;-68
2021/11/27 06:17:08;;;;;;;;;1.00;1.00;;;;;20.79;37.17;98307.09;4968682;28;46204;-68
2021/11/27 06:19:34;;;;;;;;;1.00;0.00;;;;;20.91;37.08;98338.75;4972358;28;45495;-68
2021/11/27 06:21:59;;;;;;;;;2.00;0.00;;;;;20.81;37.17;98315.59;4970743;28;45610;-68
2021/11/27 06:24:24;;;;;;;;;0.00;0.00;;;;;20.93;36.97;98326.13;4968737;28;45276;-68
2021/11/27 06:26:50;;;;;;;;;0.00;0.00;;;;;20.92;36.88;98330.59;4968247;28;45933;-68
2021/11/27 06:29:15;;;;;;;;;0.67;0.00;;;;;20.92;37.25;98333.22;4968415;28;45321;-68
2021/11/27 06:31:41;;;;;;;;;3.67;1.00;;;;;20.89;37.01;98328.44;4971832;28;45589;-68
2021/11/27 06:34:06;;;;;;;;;0.25;0.25;;;;;20.92;37.01;98335.88;4970868;28;45363;-68
2021/11/27 06:36:32;;;;;;;;;0.00;0.00;;;;;20.93;36.85;98328.75;4967879;28;45473;-68
2021/11/27 06:38:57;;;;;;;;;1.00;0.00;;;;;20.92;36.97;98327.16;4968545;28;45449;-68
2021/11/27 06:41:23;;;;;;;;;0.00;0.00;;;;;20.92;36.97;98330.59;4967965;28;47487;-68
2021/11/27 06:43:49;;;;;;;;;0.00;0.00;;;;;20.91;37.16;98330.84;4972827;27;45625;-68
2021/11/27 06:46:14;;;;;;;;;0.00;0.00;;;;;20.91;36.88;98339.56;4970896;28;45995;-68
2021/11/27 06:48:40;;;;;;;;;1.00;1.00;;;;;20.91;36.69;98350.16;4960888;28;45352;-68
2021/11/27 06:51:06;;;;;;;;;0.50;0.50;;;;;20.90;36.91;98339.78;4963972;28;45391;-68
2021/11/27 06:53:31;;;;;;;;;1.50;0.50;;;;;20.78;36.55;98326.63;4966715;28;45554;-68
2021/11/27 06:55:57;;;;;;;;;0.25;0.25;;;;;20.89;36.87;98341.66;4969238;28;45898;-68
2021/11/27 06:58:22;;;;;;;;;0.67;0.00;;;;;20.81;36.86;98337.53;4971511;28;45719;-68
2021/11/27 07:00:48;;;;;;;;;0.50;0.00;;;;;20.88;37.00;98353.25;4960493;28;45534;-69
2021/11/27 07:03:13;;;;;;;;;2.75;0.00;;;;;20.88;36.80;98345.31;4964458;28;45531;-68
2021/11/27 07:05:39;;;;;;;;;0.00;0.00;;;;;20.89;37.00;98351.41;4967141;28;45896;-68
2021/11/27 07:08:05;;;;;;;;;0.00;0.00;;;;;20.89;37.01;98354.06;4967936;28;45356;-68
2021/11/27 07:10:30;;;;;;;;;0.75;0.75;;;;;20.89;36.79;98372.56;4972540;28;45461;-68
2021/11/27 07:12:58;;;;;;;;;0.00;0.00;;;;;20.88;36.75;98352.44;4969718;28;45459;-68
2021/11/27 07:15:23;;;;;;;;;0.50;0.00;;;;;20.88;36.64;98352.44;4967129;28;46539;-68
2021/11/27 07:17:49;;;;;;;;;0.00;0.00;;;;;20.88;36.78;98352.44;4961628;28;45584;-68
2021/11/27 07:20:14;;;;;;;;;0.00;0.00;;;;;20.87;36.93;98359.56;4967900;28;45291;-68
2021/11/27 07:22:40;;;;;;;;;0.25;0.25;;;;;20.86;36.95;98363.25;4971147;28;45232;-68
2021/11/27 07:25:06;;;;;;;;;0.00;0.00;;;;;20.86;36.90;98344.75;4969124;28;45359;-68
2021/11/27 07:27:31;;;;;;;;;0.00;0.00;;;;;20.85;36.70;98348.44;4968064;28;45312;-68
2021/11/27 07:29:56;;;;;;;;;0.00;0.00;;;;;20.85;36.81;98354.53;4966222;28;45355;-68
2021/11/27 07:32:22;;;;;;;;;0.00;0.00;;;;;20.85;36.83;98353.72;4966017;28;45536;-68
2021/11/27 07:34:48;;;;;;;;;0.00;0.00;;;;;20.76;36.94;98334.78;4969919;28;45351;-68
2021/11/27 07:37:13;;;;;;;;;0.00;0.00;;;;;20.84;36.69;98360.06;4969992;28;45558;-68
2021/11/27 07:39:39;;;;;;;;;0.00;0.00;;;;;20.78;36.84;98359.13;4969026;28;45320;-68
2021/11/27 07:42:05;;;;;;;;;0.00;0.00;;;;;20.85;36.80;98372.22;4967663;28;48424;-68
2021/11/27 07:44:31;;;;;;;;;0.67;0.67;;;;;20.85;36.59;98377.50;4967627;28;45321;-68
2021/11/27 07:46:57;;;;;;;;;0.00;0.00;;;;;20.85;36.80;98383.59;4968362;28;45375;-68
2021/11/27 07:49:24;;;;;;;;;0.00;0.00;;;;;20.84;36.79;98384.63;4971112;28;45354;-68
2021/11/27 07:51:50;;;;;;;;;0.00;0.00;;;;;20.85;36.99;98391.53;4969525;28;45316;-68
2021/11/27 07:54:15;;;;;;;;;0.00;0.00;;;;;20.79;36.84;98387.16;4967363;28;45295;-68
2021/11/27 07:56:41;;;;;;;;;0.00;0.00;;;;;20.85;36.78;98402.09;4967410;28;45453;-68
2021/11/27 07:59:06;;;;;;;;;0.75;0.75;;;;;20.83;36.61;98390.97;4971826;28;45292;-69
2021/11/27 08:01:33;;;;;;;;;0.00;0.00;;;;;20.81;36.96;98390.38;4971524;28;45503;-68
2021/11/27 08:03:59;;;;;;;;;1.00;0.00;;;;;20.82;36.79;98389.34;4969211;28;46953;-68
2021/11/27 08:06:24;;;;;;;;;0.00;0.00;;;;;20.87;36.66;98401.84;4971522;28;45447;-68
2021/11/27 08:08:49;;;;;;;;;0.00;0.00;;;;;20.84;36.65;98397.81;4969849;28;45383;-68
2021/11/27 08:11:15;;;;;;;;;0.00;0.00;;;;;20.87;36.64;98409.78;4970011;28;45445;-68
2021/11/27 08:13:43;;;;;;;;;1.00;0.00;;;;;20.88;36.83;98402.66;4971476;28;45545;-68
2021/11/27 08:16:09;;;;;;;;;0.00;0.00;;;;;20.89;36.87;98412.22;4972174;28;45533;-68
2021/11/27 08:18:34;;;;;;;;;0.00;0.00;;;;;20.89;36.87;98414.84;4972286;28;45224;-68
2021/11/27 08:21:00;;;;;;;;;1.00;1.00;;;;;20.88;36.51;98416.69;4971139;28;45486;-68
2021/11/27 08:23:25;;;;;;;;;0.00;0.00;;;;;20.89;36.68;98428.06;4971062;28;45987;-68
2021/11/27 08:25:52;;;;;;;;;0.00;0.00;;;;;20.88;36.85;98423.81;4971209;28;45241;-68
2021/11/27 08:28:17;;;;;;;;;0.00;0.00;;;;;20.88;36.65;98432.53;4971338;28;45308;-68
2021/11/27 08:30:42;;;;;;;;;0.00;0.00;;;;;20.83;37.08;98429.78;4972679;28;45437;-68
2021/11/27 08:33:08;;;;;;;;;0.50;0.00;;;;;20.87;36.61;98436.22;4970138;28;46172;-68
2021/11/27 08:35:33;;;;;;;;;0.75;0.00;;;;;20.86;36.66;98434.63;4971185;28;45342;-68
2021/11/27 08:37:59;;;;;;;;;0.00;0.00;;;;;20.86;36.54;98447.84;4973238;28;45356;-68
2021/11/27 08:40:24;;;;;;;;;0.33;0.00;;;;;20.85;36.60;98441.75;4974154;28;45394;-68
2021/11/27 08:42:50;;;;;;;;;0.00;0.00;;;;;20.84;36.67;98450.69;4975865;28;45724;-68
2021/11/27 08:45:16;;;;;;;;;0.67;0.00;;;;;20.84;36.81;98449.91;4973449;28;45387;-68
2021/11/27 08:47:42;;;;;;;;;0.25;0.00;;;;;20.85;36.80;98462.88;4972408;28;45387;-68
2021/11/27 08:50:09;;;;;;;;;2.33;0.67;;;;;20.84;36.71;98466.53;4972601;28;45285;-67
2021/11/27 08:52:34;;;;;;;;;0.00;0.00;;;;;20.83;36.72;98462.31;4970966;28;47022;-69
2021/11/27 08:55:00;;;;;;;;;0.00;0.00;;;;;20.83;36.69;98457.03;4971888;28;45450;-68
2021/11/27 08:57:25;;;;;;;;;1.00;0.00;;;;;20.84;36.76;98471.06;4969558;28;45213;-66
2021/11/27 08:59:51;;;;;;;;;0.00;0.00;;;;;20.83;36.68;98464.97;4969499;28;45518;-68
2021/11/27 09:02:18;;;;;;;;;0.00;0.00;;;;;20.83;36.66;98470.25;4969432;28;45475;-68
2021/11/27 09:04:44;;;;;;;;;0.00;0.00;;;;;20.82;36.46;98476.56;4972251;28;45459;-68
2021/11/27 09:07:09;;;;;;;;;1.00;0.00;;;;;20.71;36.57;98458.88;4972442;28;45459;-68
2021/11/27 09:09:35;;;;;;;;;0.00;0.00;;;;;20.81;36.67;98480.25;4970108;28;45424;-68
2021/11/27 09:12:02;;;;;;;;;1.00;0.00;;;;;20.81;36.53;98480.25;4968220;28;45396;-68
2021/11/27 09:14:28;;;;;;;;;0.00;0.00;;;;;20.82;36.84;98483.66;4968903;28;45478;-68
2021/11/27 09:16:53;;;;;;;;;0.00;0.00;;;;;20.76;36.46;98468.75;4970917;28;45447;-69
2021/11/27 09:19:20;;;;;;;;;0.00;0.00;;;;;20.81;36.66;98482.88;4972674;28;45240;-67
2021/11/27 09:21:46;;;;;;;;;0.00;0.00;;;;;20.82;36.66;98481.03;4970966;28;45384;-68
2021/11/27 09:24:12;;;;;;;;;0.00;0.00;;;;;20.80;36.55;98475.16;4968148;28;45593;-68
2021/11/27 09:26:38;;;;;;;;;0.00;0.00;;;;;20.80;36.68;98475.97;4967799;28;45363;-68
2021/11/27 09:29:06;;;;;;;;;0.00;0.00;;;;;20.80;36.46;98483.91;4969824;27;45359;-68
2021/11/27 09:31:31;;;;;;;;;0.00;0.00;;;;;20.80;36.66;98497.13;4957898;28;46374;-68
2021/11/27 09:33:56;;;;;;;;;1.00;1.00;;;;;20.81;36.60;98500.56;4970717;28;45427;-68
2021/11/27 09:36:23;;;;;;;;;1.00;0.00;;;;;20.80;36.68;98499.75;4962441;28;45601;-67
2021/11/27 09:38:49;;;;;;;;;0.00;0.00;;;;;20.72;36.65;98490.34;4962406;28;45485;-68
2021/11/27 09:41:21;;;;;;;;;0.00;0.00;;;;;20.80;36.43;98499.75;4964674;28;46260;-68
2021/11/27 09:43:48;;;;;;;;;0.00;0.00;;;;;20.82;36.87;98518.84;4971267;28;45558;-68
2021/11/27 09:46:18;;;;;;;;;0.00;0.00;;;;;20.82;36.41;98521.47;4971829;28;45405;-68
2021/11/27 09:48:48;;;;;;;;;0.00;0.00;;;;;20.82;36.64;98529.41;4972720;28;45476;-68
2021/11/27 09:51:14;;;;;;;;;0.00;0.00;;;;;20.82;36.58;98532.06;4968740;28;46007;-68
2021/11/27 09:53:39;;;;;;;;;0.00;0.00;;;;;20.82;36.54;98531.25;4969238;28;45446;-67
2021/11/27 09:56:07;;;;;;;;;0.00;0.00;;;;;20.83;36.81;98522.28;4977195;28;45339;-68
2021/11/27 09:58:33;;;;;;;;;0.00;0.00;;;;;20.77;36.83;98515.25;4973869;28;45290;-68
2021/11/27 10:01:00;;;;;;;;;0.75;0.00;;;;;20.83;36.73;98525.75;4971682;28;45435;-68
2021/11/27 10:03:26;;;;;;;;;0.00;0.00;;;;;20.84;36.88;98535.25;4970334;28;45472;-68
2021/11/27 10:05:54;;;;;;;;;0.00;0.00;;;;;20.86;36.90;98540.34;4971217;28;45546;-68
2021/11/27 10:08:19;;;;;;;;;0.50;0.00;;;;;20.87;36.93;98543.78;4975136;28;45559;-67
2021/11/27 10:10:45;;;;;;;;;0.00;0.00;;;;;20.60;36.86;98486.88;4972678;28;45457;-68
2021/11/27 10:13:10;;;;;;;;;0.00;0.00;;;;;20.85;36.93;98544.81;4971349;28;45503;-68
2021/11/27 10:15:36;;;;;;;;;0.75;0.00;;;;;20.85;36.79;98552.75;4967975;28;45707;-68
2021/11/27 10:18:19;;;;;;;;;0.00;0.00;;;;;20.85;36.94;98560.66;4973104;28;45385;-68
2021/11/27 10:20:44;;;;;;;;;0.75;0.00;;;;;20.84;36.79;98559.06;4969378;28;47177;-68
2021/11/27 10:23:11;;;;;;;;;0.50;0.00;;;;;20.85;36.97;98567.78;4974301;28;45580;-68
2021/11/27 10:25:39;;;;;;;;;0.00;0.00;;;;;20.79;36.85;98550.22;4970580;28;45528;-66
2021/11/27 10:28:14;;;;;;;;;0.00;0.00;;;;;20.83;36.98;98573.31;4977497;28;45367;-68
2021/11/27 10:30:48;;;;;;;;;0.00;0.00;;;;;20.83;37.02;98588.38;4974631;28;46920;-69
2021/11/27 10:33:15;;;;;;;;;1.75;0.00;;;;;20.76;36.93;98577.91;4965203;28;45296;-69
2021/11/27 10:35:55;;;;;;;;;0.00;0.00;;;;;20.79;37.18;98588.00;4966922;28;45640;-70
2021/11/27 10:38:21;;;;;;;;;1.00;0.00;;;;;20.83;36.98;98599.75;4976103;28;45408;-70
2021/11/27 10:40:58;;;;;;;;;0.00;0.00;;;;;20.83;37.14;98599.75;4973636;28;45326;-69
2021/11/27 10:43:23;;;;;;;;;1.00;0.00;;;;;20.81;37.03;98604.47;4971907;28;45499;-69
2021/11/27 10:45:49;;;;;;;;;1.25;0.00;;;;;20.82;36.91;98613.97;4974762;28;45815;-69
2021/11/27 10:48:16;;;;;;;;;1.00;0.00;;;;;20.82;36.91;98610.53;4968647;28;45525;-70
2021/11/27 10:50:49;;;;;;;;;0.50;0.00;;;;;20.81;37.14;98622.97;4971943;28;47148;-68
2021/11/27 10:53:21;;;;;;;;;1.50;0.00;;;;;20.80;36.97;98618.69;4973530;28;45537;-68
2021/11/27 10:55:47;;;;;;;;;1.00;0.00;;;;;20.81;36.97;98630.06;4973156;28;45493;-68
2021/11/27 10:58:14;;;;;;;;;0.00;0.00;;;;;20.82;37.05;98627.19;4975460;28;45560;-69
2021/11/27 11:00:43;;;;;;;;;0.00;0.00;;;;;20.82;37.07;98635.13;4968667;28;48414;-69
2021/11/27 11:03:27;;;;;;;;;0.00;0.00;;;;;20.83;37.10;98642.03;4969641;28;45568;-68
2021/11/27 11:05:55;;;;;;;;;0.00;0.00;;;;;20.82;37.01;98650.97;4965643;28;45481;-68
2021/11/27 11:08:38;;;;;;;;;1.75;0.00;;;;;20.84;37.23;98659.47;4971325;28;45380;-67
2021/11/27 11:11:19;;;;;;;;;0.75;0.00;;;;;20.84;37.02;98656.06;4968096;28;46231;-68
2021/11/27 11:13:44;;;;;;;;;1.00;1.00;;;;;20.84;37.31;98666.63;4974351;28;45585;-68
2021/11/27 11:16:09;;;;;;;;;0.33;0.33;;;;;20.84;37.43;98667.41;4973829;28;45458;-68
2021/11/27 11:18:35;;;;;;;;;0.00;0.00;;;;;20.84;37.34;98674.56;4973314;28;45535;-68
2021/11/27 11:21:08;;;;;;;;;2.75;1.00;;;;;20.87;37.50;98678.59;5060893;28;45417;-68
2021/11/27 11:23:35;;;;;;;;;1.75;1.00;;;;;20.88;37.36;98672.25;5038348;27;45599;-68
2021/11/27 11:26:05;;;;;;;;;0.00;0.00;;;;;20.89;37.58;98692.38;5032916;28;45398;-68
2021/11/27 11:28:51;;;;;;;;;0.00;0.00;;;;;20.89;37.32;98711.69;5045723;27;45973;-68
2021/11/27 11:31:21;;;;;;;;;0.00;0.00;;;;;20.91;37.39;98717.56;5041598;28;46118;-68